Etusivu
METAR-TAF:

METAR-TAF

Lentoasemat :

Niamey, Niger

Diori Hamanin kansainvälinen lentoasema

Leveyspiiri: 13-29N, Pituuspiiri: 002-10E, korkeus merenpinnasta: 223 m

Tämänhetkinen sää

Tämä raportti tehtiin 41 minuuttia sitten, kello 06.00 UTC
Tuuli 3 kn pohjoisesta
Lämpötila 27°C
Kosteus 13%
Ilmanpaine 1009 hPa
Näkyvyys: 7000 m

METAR: DRRN 200600Z 01003KT 7000 NSC 27/M04 Q1009 NOSIG

Aika: 07:41 (06:41 UTC)

Sääennuste

Tämä raportti tehtiin 1 tunti ja 41 minuuttia sitten, kello 05.00 UTC
Ennuste voimassa 20. päivästä klo 06 UTC - 21. päivään klo 12 UTC
Tuuli 8 kn pohjoisesta/koillisesta
Näkyvyys: 8000 m
Ajoittain
20. päivästä klo 06 UTC - 20. päivään klo 10 UTC
Näkyvyys: 4500 m
laajalle levinnyttä pölyä
Ajoittain
20. päivästä klo 17 UTC - 20. päivään klo 20 UTC
Näkyvyys: 4000 m
laajalle levinnyttä pölyä

TAF: DRRN 200500Z 2006/2112 02008KT 8000 NSC TEMPO 2006/2010 4500 DU TEMPO 2017/2020 4000 DU

Säähavainnot ja -ennusteet yli 4000 lentoasemalta (METAR- ja TAF-raportit).

Käytössä olevat sääasemat on merkitty karttaan keltaisilla ja punaisilla pisteillä.

Aseta hiiri pisteen päälle nähdäksesi sääaseman nimen.

Klikkaa sitten nähdäksesi säähavainnot ja -ennusteet.

Kartan vaihtaminen: klikkaa mustalla rastilla varustettuja vihreitä pisteitä, niin voit zoomata sisään; viivalla varustettua vihreää pistettä, niin voit zoomata ulos tai vihreitä nuolia, niin pääset viereisille kartoille.


METAR-TAF: